Terminal Aerodrome Forecast
Issued by NWS

Home | Current Version | Previous Version | Text Only | Print | Product List | Glossary On
Versions: 1 2 3 4 5 6 7 8 9 10 11 12
868
FTUS41 KBTV 212320
TAFMPV
TAF
KMPV 212320Z 2200/2224 17009KT P6SM OVC150
     FM220300 17007KT P6SM VCSH OVC080
     FM221300 VRB03KT P6SM BKN090
     FM222300 VRB03KT P6SM SCT050=

USA.gov is the U.S. government's official web portal to all federal, state and local government web resources and services.